KCRP/CRP METAR and TAF weather

Enter ICAO airport designator
Station Type Date Time Source
KCRP METAR 2020/09/22 23:51 UTC NOAA

KCRP 222351Z 01010KT 10SM FEW025 FEW045 BKN055 BKN250 26/22 A2985 RMK AO2 SLP106 T02610217 10300 20261 53007


Station Type Date Time Source
KCRP Decoded METAR 2020/09/22 23:51 UTC NOAA

CORPUS CHRISTI INTERNATIONAL , TX, United States (KCRP) 27-46N 97-31W 16M
Sep 22, 2020 - 07:51 PM EDT / 2020.09.22 2351 UTC
Wind: from the N (010 degrees) at 12 MPH (10 KT):0
Visibility: 10 mile(s):0
Sky conditions: mostly cloudy
Temperature: 79.0 F (26.1 C)
Dew Point: 71.1 F (21.7 C)
Relative Humidity: 76%
Pressure (altimeter): 29.85 in. Hg (1010 hPa)
Pressure tendency: 0.02 inches (0.7 hPa) higher than three hours ago
ob: KCRP 222351Z 01010KT 10SM FEW025 FEW045 BKN055 BKN250 26/22 A2985 RMK AO2 SLP106 T02610217 10300 20261 53007
cycle: 0

Station Type Date Time Source
KCRP TAF 2020/09/22 18:42 UTC NOAA

TAF KCRP 221739Z 2218/2318 31014G23KT P6SM BKN022 OVC050
TEMPO 2219/2222 SCT025 BKN050
FM222200 32014G23KT P6SM SCT030 BKN050
TEMPO 2222/2224 BKN030 BKN050
FM230200 34012KT P6SM SCT025 BKN250
FM230600 33010KT P6SM BKN025
FM231000 33010KT P6SM SCT250

Example: see airport list